Time;durP1;ratioP1;P1;durP2;ratioP2;P2;SDS_P1;SDS_P2;PMS_P1;PMS_P2;Temp;Humidity;BMP_temperature;BMP_pressure;BME280_temperature;BME280_humidity;BME280_pressure;Samples;Min_cycle;Max_cycle;Signal;HPM_P1;HPM_P2
2023/12/26 00:01:34;;;;;;;2.13;1.35;;;;;;;;;;4929143;29;20040;-87
2023/12/26 00:04:15;;;;;;;3.53;2.00;;;;;;;;;;4917603;29;20032;-87
2023/12/26 00:06:43;;;;;;;2.25;1.48;;;;;;;;;;4919777;29;20032;-87
2023/12/26 00:09:15;;;;;;;5.97;3.70;;;;;;;;;;4919302;29;20040;-86
2023/12/26 00:11:46;;;;;;;2.95;1.40;;;;;;;;;;4934049;29;20075;-87
2023/12/26 00:14:17;;;;;;;2.60;1.40;;;;;;;;;;4920366;29;20095;-87
2023/12/26 00:16:51;;;;;;;3.78;1.58;;;;;;;;;;4915954;29;20394;-86
2023/12/26 00:19:17;;;;;;;2.85;1.40;;;;;;;;;;4912641;29;20070;-87
2023/12/26 00:21:52;;;;;;;4.35;1.65;;;;;;;;;;4919155;29;20028;-87
2023/12/26 00:24:18;;;;;;;1.77;1.30;;;;;;;;;;4914649;29;20051;-86
2023/12/26 00:26:47;;;;;;;3.05;1.58;;;;;;;;;;4912581;29;20040;-88
2023/12/26 00:29:12;;;;;;;2.83;1.58;;;;;;;;;;4919430;29;20117;-87
2023/12/26 00:31:41;;;;;;;2.58;1.40;;;;;;;;;;4916755;29;20066;-87
2023/12/26 00:34:14;;;;;;;1.70;1.20;;;;;;;;;;4912973;29;20066;-87
2023/12/26 00:36:56;;;;;;;2.33;1.50;;;;;;;;;;4914693;29;20131;-87
2023/12/26 00:39:24;;;;;;;3.25;1.40;;;;;;;;;;4913176;29;20130;-86
2023/12/26 00:41:53;;;;;;;2.00;1.23;;;;;;;;;;4926400;29;20498;-88
2023/12/26 00:44:26;;;;;;;2.00;1.30;;;;;;;;;;4924993;29;20052;-86
2023/12/26 00:47:02;;;;;;;2.17;1.50;;;;;;;;;;4917309;29;20402;-87
2023/12/26 00:49:30;;;;;;;2.17;1.40;;;;;;;;;;4913333;29;20052;-86
2023/12/26 00:51:59;;;;;;;2.00;1.20;;;;;;;;;;4919717;29;20111;-87
2023/12/26 00:54:25;;;;;;;4.30;1.40;;;;;;;;;;4918474;29;20068;-90
2023/12/26 00:57:08;;;;;;;2.92;1.55;;;;;;;;;;4912925;29;20028;-88
2023/12/26 00:59:34;;;;;;;1.88;1.33;;;;;;;;;;4915772;29;20040;-88
2023/12/26 01:02:09;;;;;;;2.30;1.25;;;;;;;;;;4898544;29;20411;-86
2023/12/26 01:04:35;;;;;;;2.70;1.35;;;;;;;;;;4918527;29;20102;-88
2023/12/26 01:07:07;;;;;;;2.95;1.60;;;;;;;;;;4914441;29;20506;-86
2023/12/26 01:09:43;;;;;;;2.40;1.48;;;;;;;;;;4930352;29;20110;-87
2023/12/26 01:12:15;;;;;;;2.97;2.13;;;;;;;;;;4917282;29;20115;-90
2023/12/26 01:14:46;;;;;;;3.00;1.50;;;;;;;;;;4932676;29;20071;-88
2023/12/26 01:17:12;;;;;;;2.00;1.40;;;;;;;;;;4915451;29;20040;-87
2023/12/26 01:20:20;;;;;;;2.97;1.50;;;;;;;;;;4934425;29;20064;-86
2023/12/26 01:23:28;;;;;;;;;;;;;;;;;;4909469;29;20031;-89
2023/12/26 01:26:02;;;;;;;2.22;1.45;;;;;;;;;;4901231;29;20014;-86
2023/12/26 01:28:46;;;;;;;2.22;1.40;;;;;;;;;;4919387;29;20038;-86
2023/12/26 01:31:12;;;;;;;1.55;1.30;;;;;;;;;;4922671;29;20037;-87
2023/12/26 01:33:58;;;;;;;2.50;1.40;;;;;;;;;;4902706;29;20128;-87
2023/12/26 01:36:26;;;;;;;2.10;1.30;;;;;;;;;;4918688;29;20056;-85
2023/12/26 01:39:05;;;;;;;1.58;1.15;;;;;;;;;;4914867;29;20036;-86
2023/12/26 01:41:35;;;;;;;2.33;1.42;;;;;;;;;;4925971;29;20047;-88
2023/12/26 01:44:17;;;;;;;2.15;1.50;;;;;;;;;;4914325;29;20033;-87
2023/12/26 01:46:52;;;;;;;2.88;1.40;;;;;;;;;;4931712;29;20427;-86
2023/12/26 01:49:47;;;;;;;2.35;1.40;;;;;;;;;;4931148;29;20028;-88
2023/12/26 01:52:29;;;;;;;2.77;1.50;;;;;;;;;;4931340;29;20047;-85
2023/12/26 01:54:57;;;;;;;2.00;1.30;;;;;;;;;;4930503;29;20056;-86
2023/12/26 01:57:27;;;;;;;2.40;1.40;;;;;;;;;;4914032;29;20499;-86
2023/12/26 01:59:53;;;;;;;4.45;1.63;;;;;;;;;;4921192;29;20029;-92
2023/12/26 02:02:19;;;;;;;1.73;1.30;;;;;;;;;;4929390;29;20401;-85
2023/12/26 02:04:57;;;;;;;2.55;1.52;;;;;;;;;;4918203;29;20063;-88
2023/12/26 02:07:29;;;;;;;2.58;1.48;;;;;;;;;;4913999;29;20419;-87
2023/12/26 02:09:56;;;;;;;2.17;1.40;;;;;;;;;;4912426;29;20047;-88
2023/12/26 02:12:46;;;;;;;3.15;1.40;;;;;;;;;;4913410;29;20040;-87
2023/12/26 02:15:14;;;;;;;4.20;1.50;;;;;;;;;;4929207;29;20040;-86
2023/12/26 02:17:53;;;;;;;1.90;1.40;;;;;;;;;;4919121;29;20390;-86
2023/12/26 02:20:24;;;;;;;1.75;1.27;;;;;;;;;;4913817;29;20033;-85
2023/12/26 02:22:53;;;;;;;5.00;1.38;;;;;;;;;;4932831;29;20503;-87
2023/12/26 02:25:24;;;;;;;1.88;1.30;;;;;;;;;;4909231;29;20046;-87
2023/12/26 02:27:51;;;;;;;2.42;1.42;;;;;;;;;;4920366;29;20130;-88
2023/12/26 02:30:21;;;;;;;2.00;1.38;;;;;;;;;;4919760;29;20055;-86
2023/12/26 02:32:55;;;;;;;2.20;1.42;;;;;;;;;;4911731;29;20059;-85
2023/12/26 02:35:24;;;;;;;2.00;1.30;;;;;;;;;;4928944;29;20042;-85
2023/12/26 02:37:52;;;;;;;2.03;1.23;;;;;;;;;;4912593;29;20098;-87
2023/12/26 02:40:25;;;;;;;3.10;1.33;;;;;;;;;;4917470;29;20111;-88
2023/12/26 02:42:53;;;;;;;2.85;1.38;;;;;;;;;;4917743;29;20067;-85
2023/12/26 02:45:24;;;;;;;2.15;1.30;;;;;;;;;;4915219;29;20040;-87
2023/12/26 02:48:04;;;;;;;2.95;1.40;;;;;;;;;;4909864;29;20028;-87
2023/12/26 02:50:46;;;;;;;3.85;1.40;;;;;;;;;;4912733;29;20042;-86
2023/12/26 02:53:15;;;;;;;2.50;1.40;;;;;;;;;;4925605;29;20054;-86
2023/12/26 02:55:40;;;;;;;3.17;1.25;;;;;;;;;;4911476;29;20119;-86
2023/12/26 02:58:09;;;;;;;4.10;1.40;;;;;;;;;;4910355;29;20079;-85
2023/12/26 03:00:40;;;;;;;2.17;1.35;;;;;;;;;;4923567;29;20036;-85
2023/12/26 03:03:06;;;;;;;2.72;1.35;;;;;;;;;;4910961;29;20035;-85
2023/12/26 03:05:42;;;;;;;3.75;1.55;;;;;;;;;;4912428;29;20043;-87
2023/12/26 03:08:23;;;;;;;1.65;1.27;;;;;;;;;;4915611;29;20124;-86
2023/12/26 03:10:58;;;;;;;2.42;1.30;;;;;;;;;;4915468;29;20040;-90
2023/12/26 03:13:24;;;;;;;2.30;1.25;;;;;;;;;;4912080;29;20046;-86
2023/12/26 03:15:53;;;;;;;2.10;1.40;;;;;;;;;;4927322;29;20052;-86
2023/12/26 03:18:27;;;;;;;3.90;1.23;;;;;;;;;;4911696;29;20052;-86
2023/12/26 03:21:20;;;;;;;2.45;1.30;;;;;;;;;;4907913;29;20082;-87
2023/12/26 03:23:57;;;;;;;2.22;1.45;;;;;;;;;;4925744;29;20032;-87
2023/12/26 03:26:29;;;;;;;;;;;;;;;;;;4911529;29;20474;-84
2023/12/26 03:28:55;;;;;;;2.28;1.40;;;;;;;;;;4906016;29;19979;-85
2023/12/26 03:31:46;;;;;;;1.52;1.25;;;;;;;;;;4923109;29;20096;-87
2023/12/26 03:34:20;;;;;;;2.78;1.50;;;;;;;;;;4916420;29;20593;-86
2023/12/26 03:36:58;;;;;;;1.90;1.25;;;;;;;;;;4909282;29;20044;-86
2023/12/26 03:39:32;;;;;;;1.80;1.20;;;;;;;;;;4925732;29;20049;-88
2023/12/26 03:42:07;;;;;;;1.85;1.30;;;;;;;;;;4915817;29;20036;-87
2023/12/26 03:44:37;;;;;;;2.13;1.40;;;;;;;;;;4909231;29;20075;-87
2023/12/26 03:47:05;;;;;;;2.50;1.35;;;;;;;;;;4923036;29;20495;-86
2023/12/26 03:49:37;;;;;;;1.95;1.23;;;;;;;;;;4913705;29;20047;-86
2023/12/26 03:52:14;;;;;;;2.15;1.27;;;;;;;;;;4915924;29;20422;-87
2023/12/26 03:54:45;;;;;;;3.22;1.45;;;;;;;;;;4910870;29;20040;-87
2023/12/26 03:57:31;;;;;;;1.55;1.20;;;;;;;;;;4921124;29;20127;-87
2023/12/26 04:00:12;;;;;;;2.10;1.33;;;;;;;;;;4911852;29;20519;-86
2023/12/26 04:02:45;;;;;;;1.80;1.20;;;;;;;;;;4923789;29;20041;-86
2023/12/26 04:05:25;;;;;;;2.35;1.48;;;;;;;;;;4894470;29;20032;-87
2023/12/26 04:08:04;;;;;;;2.90;1.30;;;;;;;;;;4898919;29;20099;-86
2023/12/26 04:10:51;;;;;;;1.63;1.20;;;;;;;;;;4908885;29;20055;-86
2023/12/26 04:13:21;;;;;;;2.03;1.30;;;;;;;;;;4905064;29;20123;-88
2023/12/26 04:15:55;;;;;;;2.08;1.27;;;;;;;;;;4912569;29;20028;-88
2023/12/26 04:18:31;;;;;;;1.98;1.27;;;;;;;;;;4926385;29;20039;-85
2023/12/26 04:23:36;;;;;;;2.88;1.10;;;;;;;;;;4932932;29;20075;-86
2023/12/26 04:26:04;;;;;;;2.00;1.13;;;;;;;;;;4946152;29;20054;-86
2023/12/26 04:28:35;;;;;;;1.73;1.17;;;;;;;;;;4946182;29;20321;-86
2023/12/26 04:31:08;;;;;;;1.70;1.30;;;;;;;;;;4915605;29;20039;-86
2023/12/26 04:34:03;;;;;;;1.98;1.25;;;;;;;;;;4945412;29;20099;-85
2023/12/26 04:36:45;;;;;;;1.67;1.10;;;;;;;;;;4933207;29;20514;-85
2023/12/26 04:39:33;;;;;;;9.63;4.80;;;;;;;;;;4939176;29;20031;-87
2023/12/26 04:42:13;;;;;;;2.65;1.75;;;;;;;;;;4923284;29;20071;-87
2023/12/26 04:44:42;;;;;;;3.47;1.17;;;;;;;;;;4926981;29;20099;-86
2023/12/26 04:47:21;;;;;;;1.83;1.33;;;;;;;;;;4931407;29;20039;-89
2023/12/26 04:49:52;;;;;;;2.55;1.40;;;;;;;;;;4931908;29;20648;-86
2023/12/26 04:52:29;;;;;;;3.35;1.67;;;;;;;;;;4949452;28;20032;-86
2023/12/26 04:54:58;;;;;;;2.92;1.50;;;;;;;;;;4912832;29;20043;-85
2023/12/26 04:57:29;;;;;;;2.58;1.40;;;;;;;;;;4932743;29;20494;-88
2023/12/26 04:59:58;;;;;;;1.50;0.90;;;;;;;;;;4917481;29;20118;-86
2023/12/26 05:02:48;;;;;;;2.05;1.30;;;;;;;;;;4928041;29;20389;-88
2023/12/26 05:05:29;;;;;;;1.83;1.10;;;;;;;;;;4931939;29;20032;-87
2023/12/26 05:08:00;;;;;;;1.60;1.10;;;;;;;;;;4936665;29;20036;-87
2023/12/26 05:10:33;;;;;;;1.95;1.20;;;;;;;;;;4917513;29;20031;-85
2023/12/26 05:13:29;;;;;;;1.70;1.10;;;;;;;;;;4933860;29;20032;-87
2023/12/26 05:16:03;;;;;;;1.85;1.20;;;;;;;;;;4933483;29;20039;-86
2023/12/26 05:18:44;;;;;;;1.27;1.08;;;;;;;;;;4930377;29;20044;-87
2023/12/26 05:21:25;;;;;;;1.67;1.05;;;;;;;;;;4940438;23;20363;-86
2023/12/26 05:24:20;;;;;;;2.20;1.30;;;;;;;;;;4929662;29;20044;-85
2023/12/26 05:26:58;;;;;;;5.65;1.30;;;;;;;;;;4935070;29;20425;-86
2023/12/26 05:29:24;;;;;;;1.88;1.38;;;;;;;;;;4932689;29;20040;-85
2023/12/26 05:32:14;;;;;;;2.03;1.40;;;;;;;;;;4916421;29;20052;-86
2023/12/26 05:34:55;;;;;;;2.72;1.45;;;;;;;;;;4930667;29;20055;-86
2023/12/26 05:37:27;;;;;;;2.42;1.33;;;;;;;;;;4932737;29;20044;-86
2023/12/26 05:40:00;;;;;;;2.80;1.50;;;;;;;;;;4926670;29;20079;-87
2023/12/26 05:42:34;;;;;;;2.45;1.50;;;;;;;;;;4948482;28;20044;-85
2023/12/26 05:48:01;;;;;;;2.50;1.60;;;;;;;;;;4923841;29;20047;-89
2023/12/26 05:50:47;;;;;;;;;;;;;;;;;;;;;
2023/12/26 05:53:38;;;;;;;1.77;1.30;;;;;;;;;;4929277;29;20063;-86
2023/12/26 05:56:27;;;;;;;3.72;1.58;;;;;;;;;;4926934;29;20051;-86
2023/12/26 05:59:15;;;;;;;4.28;1.60;;;;;;;;;;4935109;29;20401;-86
2023/12/26 06:02:07;;;;;;;2.45;1.42;;;;;;;;;;4931981;29;20034;-89
2023/12/26 06:04:59;;;;;;;3.20;1.90;;;;;;;;;;4945626;29;20159;-86
2023/12/26 06:07:37;;;;;;;2.80;1.80;;;;;;;;;;4928605;29;20047;-88
2023/12/26 06:10:13;;;;;;;;;;;;;;;;;;;;;
2023/12/26 06:12:40;;;;;;;3.92;1.50;;;;;;;;;;4929620;29;20056;-86
2023/12/26 06:15:15;;;;;;;3.33;1.60;;;;;;;;;;4944894;29;20056;-87
2023/12/26 06:17:50;;;;;;;3.13;1.50;;;;;;;;;;4934351;29;20039;-86
2023/12/26 06:20:27;;;;;;;2.13;1.58;;;;;;;;;;4932562;29;20070;-86
2023/12/26 06:23:01;;;;;;;3.47;1.70;;;;;;;;;;4924213;29;20506;-86
2023/12/26 06:25:50;;;;;;;2.05;1.40;;;;;;;;;;4928419;29;20523;-89
2023/12/26 06:28:19;;;;;;;3.72;1.48;;;;;;;;;;4928722;29;20126;-85
2023/12/26 06:30:45;;;;;;;2.00;1.33;;;;;;;;;;4943371;29;20039;-85
2023/12/26 06:33:24;;;;;;;5.22;3.38;;;;;;;;;;4930008;29;20521;-87
2023/12/26 06:36:27;;;;;;;5.25;3.30;;;;;;;;;;4929208;29;20047;-86
2023/12/26 06:39:06;;;;;;;4.03;2.53;;;;;;;;;;4916539;29;20172;-87
2023/12/26 06:41:32;;;;;;;6.65;3.10;;;;;;;;;;4954490;29;20031;-91
2023/12/26 06:44:03;;;;;;;7.90;5.00;;;;;;;;;;4945443;28;20075;-92
2023/12/26 06:46:41;;;;;;;8.55;4.63;;;;;;;;;;4949037;29;20052;-93
2023/12/26 06:49:10;;;;;;;3.08;2.05;;;;;;;;;;4932942;28;20087;-92
2023/12/26 06:51:39;;;;;;;4.10;2.58;;;;;;;;;;4944669;29;20031;-91
2023/12/26 06:54:18;;;;;;;7.25;2.30;;;;;;;;;;4957433;29;20047;-90
2023/12/26 06:56:48;;;;;;;3.95;2.40;;;;;;;;;;4940272;28;20429;-90
2023/12/26 06:59:16;;;;;;;3.33;1.80;;;;;;;;;;4941125;29;20036;-86
2023/12/26 07:01:45;;;;;;;3.47;1.98;;;;;;;;;;4930692;29;20036;-85
2023/12/26 07:04:11;;;;;;;6.20;2.70;;;;;;;;;;4930344;29;20035;-84
2023/12/26 07:06:37;;;;;;;6.15;3.30;;;;;;;;;;4917928;29;20044;-87
2023/12/26 07:09:02;;;;;;;7.55;3.70;;;;;;;;;;4930363;29;20061;-87
2023/12/26 07:11:28;;;;;;;5.95;3.47;;;;;;;;;;4928318;29;20578;-89
2023/12/26 07:13:54;;;;;;;3.60;1.83;;;;;;;;;;4927672;29;20030;-89
2023/12/26 07:16:19;;;;;;;4.45;2.00;;;;;;;;;;4932336;29;20036;-85
2023/12/26 07:18:47;;;;;;;4.43;2.20;;;;;;;;;;4925481;29;20032;-86
2023/12/26 07:21:14;;;;;;;3.92;1.90;;;;;;;;;;4931850;29;20079;-87
2023/12/26 07:23:42;;;;;;;3.42;1.92;;;;;;;;;;4928129;29;20434;-85
2023/12/26 07:26:08;;;;;;;3.13;1.77;;;;;;;;;;4924322;29;20042;-86
2023/12/26 07:28:33;;;;;;;2.67;1.67;;;;;;;;;;4926234;29;20111;-87
2023/12/26 07:30:59;;;;;;;2.85;1.70;;;;;;;;;;4924840;29;20062;-85
2023/12/26 07:33:24;;;;;;;2.70;1.73;;;;;;;;;;4924466;29;20705;-85
2023/12/26 07:35:50;;;;;;;3.22;1.88;;;;;;;;;;4923232;29;20028;-86
2023/12/26 07:38:16;;;;;;;2.85;1.70;;;;;;;;;;4924210;29;20035;-85
2023/12/26 07:40:41;;;;;;;4.03;2.22;;;;;;;;;;4929241;29;20513;-86
2023/12/26 07:43:08;;;;;;;6.03;2.15;;;;;;;;;;4926845;29;20040;-84
2023/12/26 07:45:34;;;;;;;3.00;1.90;;;;;;;;;;4925472;29;20067;-87
2023/12/26 07:47:59;;;;;;;3.60;2.10;;;;;;;;;;4924288;29;20080;-89
2023/12/26 07:50:25;;;;;;;8.55;4.05;;;;;;;;;;4927458;29;20086;-89
2023/12/26 07:52:50;;;;;;;7.20;4.00;;;;;;;;;;4927372;29;20500;-87
2023/12/26 07:55:16;;;;;;;5.38;3.33;;;;;;;;;;4922178;29;20514;-88
2023/12/26 07:57:41;;;;;;;6.93;4.30;;;;;;;;;;4926675;29;20384;-87
2023/12/26 08:00:09;;;;;;;10.43;5.82;;;;;;;;;;4926245;29;20087;-87
2023/12/26 08:02:39;;;;;;;18.20;7.28;;;;;;;;;;4925339;28;20043;-86
2023/12/26 08:05:05;;;;;;;15.55;8.27;;;;;;;;;;4930792;29;20035;-86
2023/12/26 08:07:30;;;;;;;19.42;8.93;;;;;;;;;;4923533;29;20039;-87
2023/12/26 08:09:56;;;;;;;22.73;11.13;;;;;;;;;;4927018;29;20039;-89
2023/12/26 08:12:21;;;;;;;20.02;10.45;;;;;;;;;;4931912;29;20055;-86
2023/12/26 08:14:47;;;;;;;12.07;6.13;;;;;;;;;;4936511;29;20051;-87
2023/12/26 08:17:13;;;;;;;14.30;7.93;;;;;;;;;;4929462;29;20035;-87
2023/12/26 08:19:38;;;;;;;14.45;6.60;;;;;;;;;;4925765;29;20028;-87
2023/12/26 08:22:04;;;;;;;11.30;6.20;;;;;;;;;;4925217;29;20486;-86
2023/12/26 08:24:29;;;;;;;12.60;7.43;;;;;;;;;;4932013;29;20494;-87
2023/12/26 08:26:55;;;;;;;30.02;15.90;;;;;;;;;;4931706;29;20028;-89
2023/12/26 08:29:21;;;;;;;42.00;21.08;;;;;;;;;;4929692;29;20028;-86
2023/12/26 08:31:46;;;;;;;38.67;17.73;;;;;;;;;;4927894;29;20146;-86
2023/12/26 08:34:12;;;;;;;29.30;15.50;;;;;;;;;;4930639;29;20036;-89
2023/12/26 08:36:37;;;;;;;26.88;14.55;;;;;;;;;;4927018;29;20039;-87
2023/12/26 08:39:03;;;;;;;30.95;16.60;;;;;;;;;;4927565;29;20367;-87
2023/12/26 08:41:28;;;;;;;27.85;16.75;;;;;;;;;;4927944;29;20402;-92
2023/12/26 08:43:54;;;;;;;16.80;9.38;;;;;;;;;;4927933;29;20038;-85
2023/12/26 08:46:19;;;;;;;14.65;7.78;;;;;;;;;;4943802;29;20035;-88
2023/12/26 08:48:45;;;;;;;11.60;6.72;;;;;;;;;;4928279;29;20082;-86
2023/12/26 08:51:10;;;;;;;7.55;4.32;;;;;;;;;;4928760;29;20035;-87
2023/12/26 08:53:36;;;;;;;5.13;3.42;;;;;;;;;;4950067;29;20047;-88
2023/12/26 08:56:05;;;;;;;5.40;3.50;;;;;;;;;;4932563;29;20031;-87
2023/12/26 08:58:35;;;;;;;5.57;2.95;;;;;;;;;;4933587;29;20047;-86
2023/12/26 09:01:00;;;;;;;3.63;2.58;;;;;;;;;;4936890;29;20030;-87
2023/12/26 09:03:27;;;;;;;6.07;2.97;;;;;;;;;;4925917;29;20414;-88
2023/12/26 09:05:53;;;;;;;4.32;3.00;;;;;;;;;;4930592;29;20043;-88
2023/12/26 09:08:21;;;;;;;7.38;3.03;;;;;;;;;;4927969;29;20087;-85
2023/12/26 09:10:47;;;;;;;3.67;2.15;;;;;;;;;;4929299;29;20035;-88
2023/12/26 09:15:59;;;;;;;5.70;4.03;;;;;;;;;;4927125;29;20044;-86
2023/12/26 09:19:35;;;;;;;7.45;4.82;;;;;;;;;;4923918;29;20051;-85
2023/12/26 09:22:17;;;;;;;6.85;4.40;;;;;;;;;;4931260;29;20078;-85
2023/12/26 09:24:58;;;;;;;7.68;4.40;;;;;;;;;;4931189;29;20063;-84
2023/12/26 09:31:09;;;;;;;8.57;5.50;;;;;;;;;;4857595;29;20090;-87
2023/12/26 09:34:10;;;;;;;4.88;3.08;;;;;;;;;;4930199;29;20052;-89
2023/12/26 09:37:08;;;;;;;7.22;4.43;;;;;;;;;;4932850;28;20134;-85
2023/12/26 09:40:02;;;;;;;3.17;2.30;;;;;;;;;;4927561;29;20038;-88
2023/12/26 09:43:03;;;;;;;4.03;2.35;;;;;;;;;;4934917;29;20036;-86
2023/12/26 09:45:31;;;;;;;4.57;2.80;;;;;;;;;;4941087;28;20059;-86
2023/12/26 09:48:16;;;;;;;3.90;2.45;;;;;;;;;;4933998;29;20036;-88
2023/12/26 09:50:42;;;;;;;4.80;2.53;;;;;;;;;;4923507;29;20048;-87
2023/12/26 09:53:24;;;;;;;3.42;2.40;;;;;;;;;;4922553;29;20059;-86
2023/12/26 09:56:14;;;;;;;3.90;2.00;;;;;;;;;;4921362;29;20047;-87
2023/12/26 09:58:48;;;;;;;2.95;1.90;;;;;;;;;;4920802;29;20040;-87
2023/12/26 10:01:19;;;;;;;3.90;2.03;;;;;;;;;;4929037;29;20032;-88
2023/12/26 10:03:47;;;;;;;3.10;2.00;;;;;;;;;;4929698;29;20042;-87
2023/12/26 10:06:14;;;;;;;3.35;1.85;;;;;;;;;;4928234;29;20027;-89
2023/12/26 10:08:50;;;;;;;4.55;2.00;;;;;;;;;;4930475;29;20023;-87
2023/12/26 10:11:24;;;;;;;3.60;1.90;;;;;;;;;;4923481;29;20048;-88
2023/12/26 10:14:04;;;;;;;2.47;1.70;;;;;;;;;;4928954;29;20066;-87
2023/12/26 10:16:34;;;;;;;3.20;1.83;;;;;;;;;;4927765;29;20467;-91
2023/12/26 10:19:08;;;;;;;2.58;1.73;;;;;;;;;;4943884;29;20033;-90
2023/12/26 10:21:43;;;;;;;3.53;1.70;;;;;;;;;;4931189;29;20046;-88
2023/12/26 10:24:21;;;;;;;2.83;1.70;;;;;;;;;;4925202;29;20048;-91
2023/12/26 10:26:53;;;;;;;2.83;1.77;;;;;;;;;;4941488;29;20127;-88
2023/12/26 10:29:25;;;;;;;3.63;2.08;;;;;;;;;;4925624;29;20047;-89
2023/12/26 10:32:00;;;;;;;4.88;2.20;;;;;;;;;;4939359;29;20072;-88
2023/12/26 10:34:35;;;;;;;3.83;2.20;;;;;;;;;;4924868;29;20048;-88
2023/12/26 10:37:10;;;;;;;5.32;2.80;;;;;;;;;;4929236;29;20035;-89
2023/12/26 10:39:41;;;;;;;4.85;2.47;;;;;;;;;;4899753;29;20063;-86
2023/12/26 10:42:13;;;;;;;4.57;2.60;;;;;;;;;;4933547;29;20036;-83
2023/12/26 10:45:04;;;;;;;5.68;2.80;;;;;;;;;;4927113;29;20062;-85
2023/12/26 10:47:36;;;;;;;3.40;1.80;;;;;;;;;;4930001;29;20076;-89
2023/12/26 10:50:16;;;;;;;3.63;2.20;;;;;;;;;;4925784;29;20039;-88
2023/12/26 10:56:46;;;;;;;4.22;2.03;;;;;;;;;;4961017;28;20035;-88
2023/12/26 13:52:25;;;;;;;1.40;1.00;;;;;;;;;;4922425;29;20107;-87
2023/12/26 13:54:51;;;;;;;1.60;0.80;;;;;;;;;;4924107;29;20043;-87
2023/12/26 13:57:16;;;;;;;1.25;0.80;;;;;;;;;;4927758;29;20423;-87
2023/12/26 13:59:42;;;;;;;1.55;0.90;;;;;;;;;;4928283;29;20031;-86
2023/12/26 14:02:07;;;;;;;1.95;1.05;;;;;;;;;;4925066;29;20430;-87
2023/12/26 14:04:33;;;;;;;1.13;0.80;;;;;;;;;;4926351;29;20126;-87
2023/12/26 14:06:59;;;;;;;2.10;1.00;;;;;;;;;;4928355;29;20038;-87
2023/12/26 14:09:24;;;;;;;1.73;1.00;;;;;;;;;;4928134;29;20039;-88
2023/12/26 14:11:50;;;;;;;1.45;0.90;;;;;;;;;;4924997;29;20122;-86
2023/12/26 14:14:15;;;;;;;1.48;0.90;;;;;;;;;;4909925;29;20047;-86
2023/12/26 14:16:40;;;;;;;2.88;0.90;;;;;;;;;;4940433;28;20914;-87
2023/12/26 14:19:06;;;;;;;1.35;0.80;;;;;;;;;;4940434;29;20036;-86
2023/12/26 14:21:31;;;;;;;1.08;0.90;;;;;;;;;;4925488;29;20036;-86
2023/12/26 14:23:57;;;;;;;1.30;0.90;;;;;;;;;;4924828;29;20049;-87
2023/12/26 14:26:23;;;;;;;1.90;1.02;;;;;;;;;;4925203;29;20027;-87
2023/12/26 14:28:48;;;;;;;2.33;1.00;;;;;;;;;;4922199;29;20043;-87
2023/12/26 14:31:14;;;;;;;1.58;0.88;;;;;;;;;;4926873;29;20044;-87
2023/12/26 14:33:39;;;;;;;2.50;0.90;;;;;;;;;;4924762;29;20514;-87
2023/12/26 14:36:06;;;;;;;1.90;1.13;;;;;;;;;;4924976;29;20499;-87
2023/12/26 14:38:31;;;;;;;2.80;1.00;;;;;;;;;;4928525;29;20494;-87
2023/12/26 14:40:57;;;;;;;1.88;1.00;;;;;;;;;;4921552;29;20020;-87
2023/12/26 14:43:23;;;;;;;1.30;0.90;;;;;;;;;;4924951;29;20047;-87
2023/12/26 14:45:48;;;;;;;2.25;1.10;;;;;;;;;;4926828;29;20748;-88
2023/12/26 14:48:14;;;;;;;2.25;1.13;;;;;;;;;;4928080;29;20067;-87
2023/12/26 14:50:39;;;;;;;2.38;0.98;;;;;;;;;;4921594;29;20115;-86
2023/12/26 14:53:05;;;;;;;2.63;1.00;;;;;;;;;;4920779;29;20094;-87
2023/12/26 14:55:30;;;;;;;3.17;1.40;;;;;;;;;;4927737;29;20624;-85
2023/12/26 14:57:56;;;;;;;2.30;1.40;;;;;;;;;;4924534;29;20035;-88
2023/12/26 15:00:21;;;;;;;3.45;1.30;;;;;;;;;;4925128;29;20566;-88
2023/12/26 15:02:51;;;;;;;2.25;1.10;;;;;;;;;;4927020;29;20043;-87
2023/12/26 15:05:18;;;;;;;2.13;1.10;;;;;;;;;;4911263;29;20128;-87
2023/12/26 15:07:44;;;;;;;6.07;3.40;;;;;;;;;;4925103;29;20714;-87
2023/12/26 15:10:09;;;;;;;5.25;2.90;;;;;;;;;;4925931;29;20023;-86
2023/12/26 15:12:35;;;;;;;2.10;1.08;;;;;;;;;;4942956;28;20760;-85
2023/12/26 15:15:02;;;;;;;1.48;0.80;;;;;;;;;;4926438;29;20036;-86
2023/12/26 15:17:28;;;;;;;0.98;0.80;;;;;;;;;;4928266;29;20035;-88
2023/12/26 15:19:54;;;;;;;1.27;0.80;;;;;;;;;;4926331;29;20397;-87
2023/12/26 15:22:19;;;;;;;2.45;0.80;;;;;;;;;;4926693;29;20099;-86
2023/12/26 15:24:45;;;;;;;1.27;0.80;;;;;;;;;;4927303;29;20247;-86
2023/12/26 15:27:10;;;;;;;2.70;0.90;;;;;;;;;;4931805;29;20043;-86
2023/12/26 15:29:36;;;;;;;2.75;0.85;;;;;;;;;;4943417;29;20509;-88
2023/12/26 15:32:03;;;;;;;1.17;1.00;;;;;;;;;;4927075;29;20032;-88
2023/12/26 15:34:29;;;;;;;1.80;0.90;;;;;;;;;;4910247;29;20058;-89
2023/12/26 15:36:54;;;;;;;1.70;1.00;;;;;;;;;;4928371;29;20039;-86
2023/12/26 15:39:20;;;;;;;1.52;0.98;;;;;;;;;;4933031;29;20126;-88
2023/12/26 15:41:46;;;;;;;2.10;1.00;;;;;;;;;;4929790;29;20463;-88
2023/12/26 15:44:12;;;;;;;2.25;1.25;;;;;;;;;;4932701;29;20082;-88
2023/12/26 15:46:37;;;;;;;1.98;1.00;;;;;;;;;;4945434;29;20032;-88
2023/12/26 15:49:03;;;;;;;1.20;0.80;;;;;;;;;;4930612;29;20040;-88
2023/12/26 15:51:28;;;;;;;1.88;1.00;;;;;;;;;;4931901;29;20060;-87
2023/12/26 15:53:54;;;;;;;1.80;1.00;;;;;;;;;;4923995;29;20024;-89
2023/12/26 15:56:23;;;;;;;3.20;1.73;;;;;;;;;;4915873;29;20055;-89
2023/12/26 15:58:49;;;;;;;12.32;5.90;;;;;;;;;;4926611;29;20098;-89
2023/12/26 16:01:20;;;;;;;8.15;4.10;;;;;;;;;;4928431;29;20043;-90
2023/12/26 16:03:49;;;;;;;9.23;4.63;;;;;;;;;;4929453;29;20040;-89
2023/12/26 16:06:22;;;;;;;12.48;6.90;;;;;;;;;;4913933;29;20040;-87
2023/12/26 16:08:48;;;;;;;16.45;10.32;;;;;;;;;;4930973;29;20036;-89
2023/12/26 16:11:14;;;;;;;10.80;6.75;;;;;;;;;;4928087;29;20048;-89
2023/12/26 16:13:40;;;;;;;11.55;6.25;;;;;;;;;;4925744;29;20546;-89
2023/12/26 16:16:06;;;;;;;12.15;6.03;;;;;;;;;;4922744;29;20032;-88
2023/12/26 16:18:32;;;;;;;13.35;7.22;;;;;;;;;;4927111;29;20086;-91
2023/12/26 16:20:57;;;;;;;12.23;6.95;;;;;;;;;;4931343;29;20039;-87
2023/12/26 16:23:25;;;;;;;17.45;8.38;;;;;;;;;;4931759;29;20042;-88
2023/12/26 16:25:50;;;;;;;12.35;5.60;;;;;;;;;;4923269;29;20055;-88
2023/12/26 16:28:16;;;;;;;9.30;5.00;;;;;;;;;;4929666;29;20032;-89
2023/12/26 16:30:42;;;;;;;8.77;4.78;;;;;;;;;;4926261;29;20036;-87
2023/12/26 16:33:07;;;;;;;4.38;2.15;;;;;;;;;;4924416;29;20044;-88
2023/12/26 16:35:33;;;;;;;4.95;2.05;;;;;;;;;;4924333;29;20047;-89
2023/12/26 16:37:58;;;;;;;2.17;1.17;;;;;;;;;;4944318;29;20035;-90
2023/12/26 16:40:24;;;;;;;1.27;0.90;;;;;;;;;;4924406;29;20067;-89
2023/12/26 16:42:49;;;;;;;1.38;0.80;;;;;;;;;;4929807;29;20407;-88
2023/12/26 16:45:22;;;;;;;2.47;0.90;;;;;;;;;;4931005;29;20119;-86
2023/12/26 16:47:48;;;;;;;1.38;0.80;;;;;;;;;;4930967;29;20031;-87
2023/12/26 16:50:15;;;;;;;1.70;1.00;;;;;;;;;;4944916;29;20102;-87
2023/12/26 16:52:42;;;;;;;6.80;1.00;;;;;;;;;;4933470;28;20035;-89
2023/12/26 16:55:19;;;;;;;1.48;0.90;;;;;;;;;;4931820;29;20433;-88
2023/12/26 16:57:45;;;;;;;2.75;1.10;;;;;;;;;;4924683;29;20406;-88
2023/12/26 17:00:11;;;;;;;2.78;0.95;;;;;;;;;;4920550;29;20471;-86
2023/12/26 17:02:37;;;;;;;2.17;1.15;;;;;;;;;;4922070;29;20068;-86
2023/12/26 17:05:02;;;;;;;3.53;1.50;;;;;;;;;;4927674;29;20119;-86
2023/12/26 17:07:31;;;;;;;3.22;1.70;;;;;;;;;;4925806;29;20043;-86
2023/12/26 17:09:56;;;;;;;3.25;1.67;;;;;;;;;;4929152;29;20394;-86
2023/12/26 17:12:22;;;;;;;2.15;1.30;;;;;;;;;;4927032;29;20036;-87
2023/12/26 17:14:48;;;;;;;2.92;1.00;;;;;;;;;;4924535;29;20031;-86
2023/12/26 17:17:14;;;;;;;2.08;1.00;;;;;;;;;;4927081;29;20035;-87
2023/12/26 17:19:40;;;;;;;1.30;0.88;;;;;;;;;;4924849;29;20086;-86
2023/12/26 17:22:10;;;;;;;1.70;1.30;;;;;;;;;;4920851;29;20036;-88
2023/12/26 17:24:37;;;;;;;4.50;2.63;;;;;;;;;;4925120;29;20111;-85
2023/12/26 17:27:03;;;;;;;2.47;1.40;;;;;;;;;;4922595;29;20056;-88
2023/12/26 17:29:28;;;;;;;4.30;3.00;;;;;;;;;;4931874;29;20066;-87
2023/12/26 17:31:55;;;;;;;1.77;1.20;;;;;;;;;;4925796;29;20068;-87
2023/12/26 17:34:22;;;;;;;2.72;1.30;;;;;;;;;;4925561;29;20032;-88
2023/12/26 17:36:50;;;;;;;2.30;1.30;;;;;;;;;;4923623;29;20036;-86
2023/12/26 17:39:17;;;;;;;2.75;1.30;;;;;;;;;;4922821;29;20043;-89
2023/12/26 17:41:43;;;;;;;1.92;0.80;;;;;;;;;;4923090;29;20036;-87
2023/12/26 17:44:09;;;;;;;1.58;0.80;;;;;;;;;;4926104;29;20490;-88
2023/12/26 17:46:38;;;;;;;1.40;0.80;;;;;;;;;;4924574;29;20043;-87
2023/12/26 17:49:04;;;;;;;1.60;0.90;;;;;;;;;;4929722;29;20554;-87
2023/12/26 17:51:36;;;;;;;2.92;0.93;;;;;;;;;;4924941;29;20167;-87
2023/12/26 17:54:02;;;;;;;2.70;1.08;;;;;;;;;;4930667;29;20118;-87
2023/12/26 17:56:28;;;;;;;1.38;1.00;;;;;;;;;;4921467;29;20611;-88
2023/12/26 17:58:53;;;;;;;1.60;1.05;;;;;;;;;;4922603;29;20119;-87
2023/12/26 18:01:19;;;;;;;3.70;1.20;;;;;;;;;;4933864;29;20478;-87
2023/12/26 18:03:45;;;;;;;2.33;1.20;;;;;;;;;;4926184;29;20099;-87
2023/12/26 18:06:11;;;;;;;1.58;0.85;;;;;;;;;;4919509;29;20399;-86
2023/12/26 18:08:37;;;;;;;1.20;0.90;;;;;;;;;;4923663;29;20103;-87
2023/12/26 18:11:03;;;;;;;2.67;1.10;;;;;;;;;;4939180;29;20110;-87
2023/12/26 18:13:28;;;;;;;1.45;1.00;;;;;;;;;;4921195;29;20491;-87
2023/12/26 18:15:54;;;;;;;2.40;1.13;;;;;;;;;;4936555;29;20032;-87
2023/12/26 18:18:20;;;;;;;1.85;1.00;;;;;;;;;;4924485;29;20036;-88